sensor_id;sensor_type;location;lat;lon;timestamp;P1;durP1;ratioP1;P2;durP2;ratioP2
73154;SDS011;61364;52.418;7.382;2022-07-05T00:01:40;2.74;;;2.74;;
73154;SDS011;61364;52.418;7.382;2022-07-05T00:04:05;2.99;;;2.99;;
73154;SDS011;61364;52.418;7.382;2022-07-05T00:09:34;2.98;;;2.98;;
73154;SDS011;61364;52.418;7.382;2022-07-05T00:12:00;3.14;;;3.14;;
73154;SDS011;61364;52.418;7.382;2022-07-05T00:14:25;3.16;;;3.16;;
73154;SDS011;61364;52.418;7.382;2022-07-05T00:19:45;3.16;;;3.16;;
73154;SDS011;61364;52.418;7.382;2022-07-05T00:22:11;3.26;;;3.26;;
73154;SDS011;61364;52.418;7.382;2022-07-05T00:24:37;3.04;;;3.04;;
73154;SDS011;61364;52.418;7.382;2022-07-05T00:27:04;3.46;;;3.46;;
73154;SDS011;61364;52.418;7.382;2022-07-05T00:29:30;3.25;;;3.25;;
73154;SDS011;61364;52.418;7.382;2022-07-05T00:32:05;3.28;;;3.28;;
73154;SDS011;61364;52.418;7.382;2022-07-05T00:34:30;3.42;;;3.42;;
73154;SDS011;61364;52.418;7.382;2022-07-05T00:36:56;3.26;;;3.26;;
73154;SDS011;61364;52.418;7.382;2022-07-05T00:39:24;3.10;;;3.10;;
73154;SDS011;61364;52.418;7.382;2022-07-05T00:41:49;2.96;;;2.96;;
73154;SDS011;61364;52.418;7.382;2022-07-05T00:44:15;3.28;;;3.28;;
73154;SDS011;61364;52.418;7.382;2022-07-05T00:46:41;3.36;;;3.36;;
73154;SDS011;61364;52.418;7.382;2022-07-05T00:49:08;3.38;;;3.38;;
73154;SDS011;61364;52.418;7.382;2022-07-05T00:51:39;3.35;;;3.35;;
73154;SDS011;61364;52.418;7.382;2022-07-05T00:54:06;3.31;;;3.31;;
73154;SDS011;61364;52.418;7.382;2022-07-05T00:56:32;3.26;;;3.26;;
73154;SDS011;61364;52.418;7.382;2022-07-05T00:58:58;3.46;;;3.46;;
73154;SDS011;61364;52.418;7.382;2022-07-05T01:01:24;3.36;;;3.36;;
73154;SDS011;61364;52.418;7.382;2022-07-05T01:04:10;3.42;;;3.42;;
73154;SDS011;61364;52.418;7.382;2022-07-05T01:06:36;3.29;;;3.29;;
73154;SDS011;61364;52.418;7.382;2022-07-05T01:09:01;3.33;;;3.33;;
73154;SDS011;61364;52.418;7.382;2022-07-05T01:14:29;3.40;;;3.40;;
73154;SDS011;61364;52.418;7.382;2022-07-05T01:17:08;3.39;;;3.39;;
73154;SDS011;61364;52.418;7.382;2022-07-05T01:19:34;3.76;;;3.76;;
73154;SDS011;61364;52.418;7.382;2022-07-05T01:24:48;3.31;;;3.31;;
73154;SDS011;61364;52.418;7.382;2022-07-05T01:27:15;3.41;;;3.41;;
73154;SDS011;61364;52.418;7.382;2022-07-05T01:29:42;3.45;;;3.45;;
73154;SDS011;61364;52.418;7.382;2022-07-05T01:32:07;3.31;;;3.31;;
73154;SDS011;61364;52.418;7.382;2022-07-05T01:37:18;3.45;;;3.45;;
73154;SDS011;61364;52.418;7.382;2022-07-05T01:39:44;3.37;;;3.37;;
73154;SDS011;61364;52.418;7.382;2022-07-05T01:42:10;3.51;;;3.51;;
73154;SDS011;61364;52.418;7.382;2022-07-05T01:44:39;3.33;;;3.33;;
73154;SDS011;61364;52.418;7.382;2022-07-05T01:47:05;3.92;;;3.92;;
73154;SDS011;61364;52.418;7.382;2022-07-05T01:49:36;3.43;;;3.43;;
73154;SDS011;61364;52.418;7.382;2022-07-05T01:54:53;3.33;;;3.33;;
73154;SDS011;61364;52.418;7.382;2022-07-05T02:00:03;3.76;;;3.76;;
73154;SDS011;61364;52.418;7.382;2022-07-05T02:02:28;3.58;;;3.58;;
73154;SDS011;61364;52.418;7.382;2022-07-05T02:04:54;3.58;;;3.58;;
73154;SDS011;61364;52.418;7.382;2022-07-05T02:10:03;3.50;;;3.50;;
73154;SDS011;61364;52.418;7.382;2022-07-05T02:12:29;3.67;;;3.67;;
73154;SDS011;61364;52.418;7.382;2022-07-05T02:15:08;3.63;;;3.63;;
73154;SDS011;61364;52.418;7.382;2022-07-05T02:17:36;3.85;;;3.85;;
73154;SDS011;61364;52.418;7.382;2022-07-05T02:22:50;3.56;;;3.56;;
73154;SDS011;61364;52.418;7.382;2022-07-05T02:25:32;3.30;;;3.30;;
73154;SDS011;61364;52.418;7.382;2022-07-05T02:27:58;3.33;;;3.33;;
73154;SDS011;61364;52.418;7.382;2022-07-05T02:33:25;3.22;;;3.22;;
73154;SDS011;61364;52.418;7.382;2022-07-05T02:35:50;3.28;;;3.28;;
73154;SDS011;61364;52.418;7.382;2022-07-05T02:38:16;3.51;;;3.51;;
73154;SDS011;61364;52.418;7.382;2022-07-05T02:40:41;3.22;;;3.22;;
73154;SDS011;61364;52.418;7.382;2022-07-05T02:43:07;3.52;;;3.52;;
73154;SDS011;61364;52.418;7.382;2022-07-05T02:45:32;3.80;;;3.80;;
73154;SDS011;61364;52.418;7.382;2022-07-05T02:47:58;3.48;;;3.48;;
73154;SDS011;61364;52.418;7.382;2022-07-05T02:50:24;3.87;;;3.87;;
73154;SDS011;61364;52.418;7.382;2022-07-05T02:52:49;3.91;;;3.91;;
73154;SDS011;61364;52.418;7.382;2022-07-05T02:55:15;3.96;;;3.96;;
73154;SDS011;61364;52.418;7.382;2022-07-05T02:57:40;3.89;;;3.89;;
73154;SDS011;61364;52.418;7.382;2022-07-05T03:00:23;3.58;;;3.58;;
73154;SDS011;61364;52.418;7.382;2022-07-05T03:02:49;3.84;;;3.84;;
73154;SDS011;61364;52.418;7.382;2022-07-05T03:05:19;3.86;;;3.86;;
73154;SDS011;61364;52.418;7.382;2022-07-05T03:07:45;3.76;;;3.76;;
73154;SDS011;61364;52.418;7.382;2022-07-05T03:10:10;3.65;;;3.65;;
73154;SDS011;61364;52.418;7.382;2022-07-05T03:12:36;3.83;;;3.83;;
73154;SDS011;61364;52.418;7.382;2022-07-05T03:15:01;3.90;;;3.90;;
73154;SDS011;61364;52.418;7.382;2022-07-05T03:17:27;3.67;;;3.67;;
73154;SDS011;61364;52.418;7.382;2022-07-05T03:19:53;3.91;;;3.91;;
73154;SDS011;61364;52.418;7.382;2022-07-05T03:28:07;4.34;;;4.34;;
73154;SDS011;61364;52.418;7.382;2022-07-05T03:33:21;4.06;;;4.06;;
73154;SDS011;61364;52.418;7.382;2022-07-05T03:35:46;3.92;;;3.92;;
73154;SDS011;61364;52.418;7.382;2022-07-05T03:41:14;4.12;;;4.12;;
73154;SDS011;61364;52.418;7.382;2022-07-05T03:43:40;4.35;;;4.35;;
73154;SDS011;61364;52.418;7.382;2022-07-05T03:49:08;3.99;;;3.99;;
73154;SDS011;61364;52.418;7.382;2022-07-05T03:51:34;3.76;;;3.76;;
73154;SDS011;61364;52.418;7.382;2022-07-05T03:54:02;4.05;;;4.05;;
73154;SDS011;61364;52.418;7.382;2022-07-05T03:56:29;4.05;;;4.05;;
73154;SDS011;61364;52.418;7.382;2022-07-05T03:58:54;4.30;;;4.30;;
73154;SDS011;61364;52.418;7.382;2022-07-05T04:01:26;4.57;;;4.57;;
73154;SDS011;61364;52.418;7.382;2022-07-05T04:03:52;4.96;;;4.96;;
73154;SDS011;61364;52.418;7.382;2022-07-05T04:06:17;4.99;;;4.99;;
73154;SDS011;61364;52.418;7.382;2022-07-05T04:08:50;4.98;;;4.98;;
73154;SDS011;61364;52.418;7.382;2022-07-05T04:11:15;5.13;;;5.13;;
73154;SDS011;61364;52.418;7.382;2022-07-05T04:13:42;5.01;;;5.01;;
73154;SDS011;61364;52.418;7.382;2022-07-05T04:16:10;4.90;;;4.90;;
73154;SDS011;61364;52.418;7.382;2022-07-05T04:18:35;4.91;;;4.91;;
73154;SDS011;61364;52.418;7.382;2022-07-05T04:21:03;4.43;;;4.43;;
73154;SDS011;61364;52.418;7.382;2022-07-05T04:23:29;5.09;;;5.09;;
73154;SDS011;61364;52.418;7.382;2022-07-05T04:25:55;5.19;;;5.19;;
73154;SDS011;61364;52.418;7.382;2022-07-05T04:28:28;4.83;;;4.83;;
73154;SDS011;61364;52.418;7.382;2022-07-05T04:30:55;4.74;;;4.74;;
73154;SDS011;61364;52.418;7.382;2022-07-05T04:33:21;4.93;;;4.93;;
73154;SDS011;61364;52.418;7.382;2022-07-05T04:35:47;5.23;;;5.23;;
73154;SDS011;61364;52.418;7.382;2022-07-05T04:38:12;4.93;;;4.93;;
73154;SDS011;61364;52.418;7.382;2022-07-05T04:40:38;5.19;;;5.19;;
73154;SDS011;61364;52.418;7.382;2022-07-05T04:43:05;4.60;;;4.60;;
73154;SDS011;61364;52.418;7.382;2022-07-05T04:48:09;5.01;;;5.01;;
73154;SDS011;61364;52.418;7.382;2022-07-05T04:53:27;4.54;;;4.54;;
73154;SDS011;61364;52.418;7.382;2022-07-05T04:55:56;4.97;;;4.97;;
73154;SDS011;61364;52.418;7.382;2022-07-05T04:58:21;4.86;;;4.86;;
73154;SDS011;61364;52.418;7.382;2022-07-05T05:00:48;4.55;;;4.55;;
73154;SDS011;61364;52.418;7.382;2022-07-05T05:03:13;5.12;;;5.12;;
73154;SDS011;61364;52.418;7.382;2022-07-05T05:08:19;5.35;;;5.35;;
73154;SDS011;61364;52.418;7.382;2022-07-05T05:10:44;5.96;;;5.96;;
73154;SDS011;61364;52.418;7.382;2022-07-05T05:15:56;5.92;;;5.92;;
73154;SDS011;61364;52.418;7.382;2022-07-05T05:18:38;6.08;;;6.08;;
73154;SDS011;61364;52.418;7.382;2022-07-05T05:21:04;6.42;;;6.42;;
73154;SDS011;61364;52.418;7.382;2022-07-05T05:23:29;5.85;;;5.85;;
73154;SDS011;61364;52.418;7.382;2022-07-05T05:25:59;6.92;;;6.92;;
73154;SDS011;61364;52.418;7.382;2022-07-05T05:28:24;7.27;;;7.27;;
73154;SDS011;61364;52.418;7.382;2022-07-05T05:30:50;7.03;;;7.03;;
73154;SDS011;61364;52.418;7.382;2022-07-05T05:33:20;7.84;;;7.84;;
73154;SDS011;61364;52.418;7.382;2022-07-05T05:35:45;8.88;;;8.88;;
73154;SDS011;61364;52.418;7.382;2022-07-05T05:40:56;9.52;;;9.52;;
73154;SDS011;61364;52.418;7.382;2022-07-05T05:43:22;8.60;;;8.60;;
73154;SDS011;61364;52.418;7.382;2022-07-05T05:48:23;6.85;;;6.85;;
73154;SDS011;61364;52.418;7.382;2022-07-05T05:50:56;6.25;;;6.25;;
73154;SDS011;61364;52.418;7.382;2022-07-05T05:53:22;5.33;;;5.33;;
73154;SDS011;61364;52.418;7.382;2022-07-05T05:55:47;5.11;;;5.11;;
73154;SDS011;61364;52.418;7.382;2022-07-05T05:58:14;5.30;;;5.30;;
73154;SDS011;61364;52.418;7.382;2022-07-05T06:00:51;5.10;;;5.10;;
73154;SDS011;61364;52.418;7.382;2022-07-05T06:03:20;4.80;;;4.80;;
73154;SDS011;61364;52.418;7.382;2022-07-05T06:08:47;5.66;;;5.66;;
73154;SDS011;61364;52.418;7.382;2022-07-05T06:13:58;5.76;;;5.76;;
73154;SDS011;61364;52.418;7.382;2022-07-05T06:19:26;5.66;;;5.66;;
73154;SDS011;61364;52.418;7.382;2022-07-05T06:21:52;5.46;;;5.46;;
73154;SDS011;61364;52.418;7.382;2022-07-05T06:24:18;5.44;;;5.44;;
73154;SDS011;61364;52.418;7.382;2022-07-05T06:26:44;5.02;;;5.02;;
73154;SDS011;61364;52.418;7.382;2022-07-05T06:31:48;4.76;;;4.76;;
73154;SDS011;61364;52.418;7.382;2022-07-05T06:34:15;4.92;;;4.92;;
73154;SDS011;61364;52.418;7.382;2022-07-05T06:36:41;4.55;;;4.55;;
73154;SDS011;61364;52.418;7.382;2022-07-05T06:39:06;5.07;;;5.07;;
73154;SDS011;61364;52.418;7.382;2022-07-05T06:41:32;4.46;;;4.46;;
73154;SDS011;61364;52.418;7.382;2022-07-05T06:43:58;4.78;;;4.78;;
73154;SDS011;61364;52.418;7.382;2022-07-05T06:46:38;4.52;;;4.52;;
73154;SDS011;61364;52.418;7.382;2022-07-05T06:49:03;4.55;;;4.55;;
73154;SDS011;61364;52.418;7.382;2022-07-05T06:54:44;4.59;;;4.59;;
73154;SDS011;61364;52.418;7.382;2022-07-05T06:57:09;3.93;;;3.93;;
73154;SDS011;61364;52.418;7.382;2022-07-05T06:59:41;3.96;;;3.96;;
73154;SDS011;61364;52.418;7.382;2022-07-05T07:02:07;3.78;;;3.78;;
73154;SDS011;61364;52.418;7.382;2022-07-05T07:04:38;3.47;;;3.47;;
73154;SDS011;61364;52.418;7.382;2022-07-05T07:07:04;3.45;;;3.45;;
73154;SDS011;61364;52.418;7.382;2022-07-05T07:15:52;3.32;;;3.32;;
73154;SDS011;61364;52.418;7.382;2022-07-05T07:18:29;3.30;;;3.30;;
73154;SDS011;61364;52.418;7.382;2022-07-05T07:20:57;2.89;;;2.89;;
73154;SDS011;61364;52.418;7.382;2022-07-05T07:26:13;2.63;;;2.63;;
73154;SDS011;61364;52.418;7.382;2022-07-05T07:31:26;2.62;;;2.62;;
73154;SDS011;61364;52.418;7.382;2022-07-05T07:34:00;2.44;;;2.44;;
73154;SDS011;61364;52.418;7.382;2022-07-05T07:36:25;2.68;;;2.68;;
73154;SDS011;61364;52.418;7.382;2022-07-05T07:39:07;2.71;;;2.71;;
73154;SDS011;61364;52.418;7.382;2022-07-05T07:41:32;2.68;;;2.68;;
73154;SDS011;61364;52.418;7.382;2022-07-05T07:46:47;2.33;;;2.33;;
73154;SDS011;61364;52.418;7.382;2022-07-05T07:49:23;2.61;;;2.61;;
73154;SDS011;61364;52.418;7.382;2022-07-05T07:51:48;2.54;;;2.54;;
73154;SDS011;61364;52.418;7.382;2022-07-05T07:54:20;2.32;;;2.32;;
73154;SDS011;61364;52.418;7.382;2022-07-05T07:56:45;2.10;;;2.10;;
73154;SDS011;61364;52.418;7.382;2022-07-05T07:59:17;1.93;;;1.93;;
73154;SDS011;61364;52.418;7.382;2022-07-05T08:01:43;1.95;;;1.95;;
73154;SDS011;61364;52.418;7.382;2022-07-05T08:06:53;2.00;;;2.00;;
73154;SDS011;61364;52.418;7.382;2022-07-05T08:12:25;2.05;;;2.05;;
73154;SDS011;61364;52.418;7.382;2022-07-05T08:14:50;2.32;;;2.32;;
73154;SDS011;61364;52.418;7.382;2022-07-05T08:17:24;2.11;;;2.11;;
73154;SDS011;61364;52.418;7.382;2022-07-05T08:19:49;2.33;;;2.33;;
73154;SDS011;61364;52.418;7.382;2022-07-05T08:22:42;2.12;;;2.12;;
73154;SDS011;61364;52.418;7.382;2022-07-05T08:25:07;2.20;;;2.20;;
73154;SDS011;61364;52.418;7.382;2022-07-05T08:27:46;2.04;;;2.04;;
73154;SDS011;61364;52.418;7.382;2022-07-05T08:33:01;2.01;;;2.01;;
73154;SDS011;61364;52.418;7.382;2022-07-05T08:35:27;2.21;;;2.21;;
73154;SDS011;61364;52.418;7.382;2022-07-05T08:37:53;1.91;;;1.91;;
73154;SDS011;61364;52.418;7.382;2022-07-05T08:40:28;1.87;;;1.87;;
73154;SDS011;61364;52.418;7.382;2022-07-05T08:42:55;1.82;;;1.82;;
73154;SDS011;61364;52.418;7.382;2022-07-05T08:45:22;1.83;;;1.83;;
73154;SDS011;61364;52.418;7.382;2022-07-05T08:47:51;1.91;;;1.91;;
73154;SDS011;61364;52.418;7.382;2022-07-05T08:53:05;1.79;;;1.79;;
73154;SDS011;61364;52.418;7.382;2022-07-05T08:55:35;1.73;;;1.73;;
73154;SDS011;61364;52.418;7.382;2022-07-05T08:58:01;1.44;;;1.44;;
73154;SDS011;61364;52.418;7.382;2022-07-05T09:00:27;1.40;;;1.40;;
73154;SDS011;61364;52.418;7.382;2022-07-05T09:02:52;1.51;;;1.51;;
73154;SDS011;61364;52.418;7.382;2022-07-05T09:05:20;1.52;;;1.52;;
73154;SDS011;61364;52.418;7.382;2022-07-05T09:07:52;1.46;;;1.46;;
73154;SDS011;61364;52.418;7.382;2022-07-05T09:10:22;1.54;;;1.54;;
73154;SDS011;61364;52.418;7.382;2022-07-05T09:12:50;1.47;;;1.47;;
73154;SDS011;61364;52.418;7.382;2022-07-05T09:15:30;1.40;;;1.40;;
73154;SDS011;61364;52.418;7.382;2022-07-05T09:17:56;2.45;;;2.44;;
73154;SDS011;61364;52.418;7.382;2022-07-05T09:20:33;4.37;;;3.76;;
73154;SDS011;61364;52.418;7.382;2022-07-05T09:22:59;2.48;;;2.02;;
73154;SDS011;61364;52.418;7.382;2022-07-05T09:25:25;1.56;;;1.41;;
73154;SDS011;61364;52.418;7.382;2022-07-05T09:28:02;1.35;;;1.35;;
73154;SDS011;61364;52.418;7.382;2022-07-05T09:33:15;1.32;;;1.32;;
73154;SDS011;61364;52.418;7.382;2022-07-05T09:38:39;1.46;;;1.46;;
73154;SDS011;61364;52.418;7.382;2022-07-05T09:41:14;1.48;;;1.48;;
73154;SDS011;61364;52.418;7.382;2022-07-05T09:43:46;1.49;;;1.49;;
73154;SDS011;61364;52.418;7.382;2022-07-05T09:46:12;1.21;;;1.21;;
73154;SDS011;61364;52.418;7.382;2022-07-05T09:48:50;1.28;;;1.28;;
73154;SDS011;61364;52.418;7.382;2022-07-05T09:51:17;1.42;;;1.42;;
73154;SDS011;61364;52.418;7.382;2022-07-05T09:56:47;1.53;;;1.53;;
73154;SDS011;61364;52.418;7.382;2022-07-05T10:01:45;1.31;;;1.31;;
73154;SDS011;61364;52.418;7.382;2022-07-05T10:04:11;1.22;;;1.22;;
73154;SDS011;61364;52.418;7.382;2022-07-05T10:06:51;1.24;;;1.24;;
73154;SDS011;61364;52.418;7.382;2022-07-05T10:09:17;1.47;;;1.47;;
73154;SDS011;61364;52.418;7.382;2022-07-05T10:14:33;1.33;;;1.33;;
73154;SDS011;61364;52.418;7.382;2022-07-05T10:26:24;1.26;;;1.26;;
73154;SDS011;61364;52.418;7.382;2022-07-05T10:31:38;1.50;;;1.50;;
73154;SDS011;61364;52.418;7.382;2022-07-05T10:37:14;1.35;;;1.35;;
73154;SDS011;61364;52.418;7.382;2022-07-05T10:39:39;1.28;;;1.28;;
73154;SDS011;61364;52.418;7.382;2022-07-05T10:42:17;1.32;;;1.32;;
73154;SDS011;61364;52.418;7.382;2022-07-05T10:44:44;1.29;;;1.29;;
73154;SDS011;61364;52.418;7.382;2022-07-05T10:47:10;1.31;;;1.31;;
73154;SDS011;61364;52.418;7.382;2022-07-05T10:49:37;1.43;;;1.43;;
73154;SDS011;61364;52.418;7.382;2022-07-05T10:55:19;1.50;;;1.50;;
73154;SDS011;61364;52.418;7.382;2022-07-05T11:00:31;1.73;;;1.73;;
73154;SDS011;61364;52.418;7.382;2022-07-05T11:05:50;1.57;;;1.57;;
73154;SDS011;61364;52.418;7.382;2022-07-05T11:08:26;1.52;;;1.52;;
73154;SDS011;61364;52.418;7.382;2022-07-05T11:11:09;1.47;;;1.47;;
73154;SDS011;61364;52.418;7.382;2022-07-05T11:13:43;1.58;;;1.58;;
73154;SDS011;61364;52.418;7.382;2022-07-05T11:22:04;1.64;;;1.64;;
73154;SDS011;61364;52.418;7.382;2022-07-05T11:26:57;1.50;;;1.50;;
73154;SDS011;61364;52.418;7.382;2022-07-05T11:32:15;1.55;;;1.55;;
73154;SDS011;61364;52.418;7.382;2022-07-05T11:34:42;1.74;;;1.74;;
73154;SDS011;61364;52.418;7.382;2022-07-05T11:37:25;1.80;;;1.80;;
73154;SDS011;61364;52.418;7.382;2022-07-05T11:45:10;1.96;;;1.96;;
73154;SDS011;61364;52.418;7.382;2022-07-05T11:47:36;2.21;;;2.21;;
73154;SDS011;61364;52.418;7.382;2022-07-05T11:50:04;1.92;;;1.92;;
73154;SDS011;61364;52.418;7.382;2022-07-05T11:52:30;1.85;;;1.85;;
73154;SDS011;61364;52.418;7.382;2022-07-05T11:57:50;1.79;;;1.79;;
73154;SDS011;61364;52.418;7.382;2022-07-05T12:00:32;1.96;;;1.96;;
73154;SDS011;61364;52.418;7.382;2022-07-05T12:05:43;2.21;;;2.21;;
73154;SDS011;61364;52.418;7.382;2022-07-05T12:10:56;2.46;;;2.46;;
73154;SDS011;61364;52.418;7.382;2022-07-05T12:16:40;2.26;;;2.26;;
73154;SDS011;61364;52.418;7.382;2022-07-05T12:21:59;2.39;;;2.39;;
73154;SDS011;61364;52.418;7.382;2022-07-05T12:24:25;2.48;;;2.48;;
73154;SDS011;61364;52.418;7.382;2022-07-05T12:26:51;2.11;;;2.11;;
73154;SDS011;61364;52.418;7.382;2022-07-05T12:29:17;2.18;;;2.18;;
73154;SDS011;61364;52.418;7.382;2022-07-05T12:32:04;2.27;;;2.27;;
73154;SDS011;61364;52.418;7.382;2022-07-05T12:34:41;3.55;;;3.55;;
73154;SDS011;61364;52.418;7.382;2022-07-05T12:37:06;2.64;;;2.64;;
73154;SDS011;61364;52.418;7.382;2022-07-05T12:39:32;2.25;;;2.25;;
73154;SDS011;61364;52.418;7.382;2022-07-05T12:45:13;2.98;;;2.98;;
73154;SDS011;61364;52.418;7.382;2022-07-05T12:47:49;3.35;;;3.35;;
73154;SDS011;61364;52.418;7.382;2022-07-05T12:50:18;2.51;;;2.51;;
73154;SDS011;61364;52.418;7.382;2022-07-05T12:55:47;3.22;;;3.22;;
73154;SDS011;61364;52.418;7.382;2022-07-05T13:01:20;3.66;;;3.66;;
73154;SDS011;61364;52.418;7.382;2022-07-05T13:06:41;2.58;;;2.58;;
73154;SDS011;61364;52.418;7.382;2022-07-05T13:09:07;3.24;;;3.24;;
73154;SDS011;61364;52.418;7.382;2022-07-05T13:11:33;3.37;;;3.37;;
73154;SDS011;61364;52.418;7.382;2022-07-05T13:13:59;5.73;;;5.73;;
73154;SDS011;61364;52.418;7.382;2022-07-05T13:16:24;5.65;;;5.65;;
73154;SDS011;61364;52.418;7.382;2022-07-05T13:21:49;2.85;;;2.85;;
73154;SDS011;61364;52.418;7.382;2022-07-05T13:24:17;2.68;;;2.68;;
73154;SDS011;61364;52.418;7.382;2022-07-05T13:26:42;3.27;;;3.27;;
73154;SDS011;61364;52.418;7.382;2022-07-05T13:38:03;2.54;;;2.54;;
73154;SDS011;61364;52.418;7.382;2022-07-05T13:40:32;2.49;;;2.49;;
73154;SDS011;61364;52.418;7.382;2022-07-05T13:42:58;2.70;;;2.70;;
73154;SDS011;61364;52.418;7.382;2022-07-05T13:45:39;2.30;;;2.30;;
73154;SDS011;61364;52.418;7.382;2022-07-05T13:48:06;1.88;;;1.88;;
73154;SDS011;61364;52.418;7.382;2022-07-05T13:50:33;2.27;;;2.27;;
73154;SDS011;61364;52.418;7.382;2022-07-05T13:53:01;2.23;;;2.23;;
73154;SDS011;61364;52.418;7.382;2022-07-05T13:55:41;2.27;;;2.27;;
73154;SDS011;61364;52.418;7.382;2022-07-05T13:58:06;2.35;;;2.35;;
73154;SDS011;61364;52.418;7.382;2022-07-05T14:03:38;2.23;;;2.23;;
73154;SDS011;61364;52.418;7.382;2022-07-05T14:06:05;2.29;;;2.29;;
73154;SDS011;61364;52.418;7.382;2022-07-05T14:08:40;2.26;;;2.26;;
73154;SDS011;61364;52.418;7.382;2022-07-05T14:11:07;2.47;;;2.47;;
73154;SDS011;61364;52.418;7.382;2022-07-05T14:13:35;2.15;;;2.15;;
73154;SDS011;61364;52.418;7.382;2022-07-05T14:16:01;2.28;;;2.28;;
73154;SDS011;61364;52.418;7.382;2022-07-05T14:18:29;2.13;;;2.13;;
73154;SDS011;61364;52.418;7.382;2022-07-05T14:20:56;2.41;;;2.41;;
73154;SDS011;61364;52.418;7.382;2022-07-05T14:23:24;2.34;;;2.34;;
73154;SDS011;61364;52.418;7.382;2022-07-05T14:25:50;2.30;;;2.30;;
73154;SDS011;61364;52.418;7.382;2022-07-05T14:28:17;2.35;;;2.35;;
73154;SDS011;61364;52.418;7.382;2022-07-05T14:30:50;2.33;;;2.33;;
73154;SDS011;61364;52.418;7.382;2022-07-05T14:33:16;2.81;;;2.81;;
73154;SDS011;61364;52.418;7.382;2022-07-05T14:38:33;2.29;;;2.29;;
73154;SDS011;61364;52.418;7.382;2022-07-05T14:43:51;2.64;;;2.64;;
73154;SDS011;61364;52.418;7.382;2022-07-05T14:46:26;2.26;;;2.26;;
73154;SDS011;61364;52.418;7.382;2022-07-05T14:48:51;2.17;;;2.17;;
73154;SDS011;61364;52.418;7.382;2022-07-05T14:54:19;1.83;;;1.83;;
73154;SDS011;61364;52.418;7.382;2022-07-05T14:56:52;1.96;;;1.96;;
73154;SDS011;61364;52.418;7.382;2022-07-05T14:59:18;1.66;;;1.66;;
73154;SDS011;61364;52.418;7.382;2022-07-05T15:04:18;1.94;;;1.94;;
73154;SDS011;61364;52.418;7.382;2022-07-05T15:09:46;1.83;;;1.83;;
73154;SDS011;61364;52.418;7.382;2022-07-05T15:12:12;1.85;;;1.85;;
73154;SDS011;61364;52.418;7.382;2022-07-05T15:14:38;1.86;;;1.86;;
73154;SDS011;61364;52.418;7.382;2022-07-05T15:19:40;1.57;;;1.57;;
73154;SDS011;61364;52.418;7.382;2022-07-05T15:24:53;1.66;;;1.66;;
73154;SDS011;61364;52.418;7.382;2022-07-05T15:27:20;1.50;;;1.50;;
73154;SDS011;61364;52.418;7.382;2022-07-05T15:29:53;1.54;;;1.54;;
73154;SDS011;61364;52.418;7.382;2022-07-05T15:32:19;1.46;;;1.46;;
73154;SDS011;61364;52.418;7.382;2022-07-05T15:37:50;1.35;;;1.35;;
73154;SDS011;61364;52.418;7.382;2022-07-05T15:40:15;1.34;;;1.34;;
73154;SDS011;61364;52.418;7.382;2022-07-05T15:42:40;1.28;;;1.28;;
73154;SDS011;61364;52.418;7.382;2022-07-05T15:45:06;1.28;;;1.28;;
73154;SDS011;61364;52.418;7.382;2022-07-05T15:47:32;1.60;;;1.60;;
73154;SDS011;61364;52.418;7.382;2022-07-05T15:49:59;1.42;;;1.42;;
73154;SDS011;61364;52.418;7.382;2022-07-05T15:55:20;1.65;;;1.65;;
73154;SDS011;61364;52.418;7.382;2022-07-05T15:57:46;2.27;;;2.27;;
73154;SDS011;61364;52.418;7.382;2022-07-05T16:00:11;1.72;;;1.72;;
73154;SDS011;61364;52.418;7.382;2022-07-05T16:02:46;1.35;;;1.35;;
73154;SDS011;61364;52.418;7.382;2022-07-05T16:05:13;1.42;;;1.42;;
73154;SDS011;61364;52.418;7.382;2022-07-05T16:07:38;1.34;;;1.34;;
73154;SDS011;61364;52.418;7.382;2022-07-05T16:10:12;1.39;;;1.39;;
73154;SDS011;61364;52.418;7.382;2022-07-05T16:12:37;1.43;;;1.43;;
73154;SDS011;61364;52.418;7.382;2022-07-05T16:20:39;1.49;;;1.49;;
73154;SDS011;61364;52.418;7.382;2022-07-05T16:25:58;1.53;;;1.53;;
73154;SDS011;61364;52.418;7.382;2022-07-05T16:33:47;1.73;;;1.73;;
73154;SDS011;61364;52.418;7.382;2022-07-05T16:38:59;1.39;;;1.39;;
73154;SDS011;61364;52.418;7.382;2022-07-05T16:44:29;1.47;;;1.47;;
73154;SDS011;61364;52.418;7.382;2022-07-05T16:49:51;1.34;;;1.34;;
73154;SDS011;61364;52.418;7.382;2022-07-05T16:55:20;1.31;;;1.31;;
73154;SDS011;61364;52.418;7.382;2022-07-05T17:00:39;1.53;;;1.53;;
73154;SDS011;61364;52.418;7.382;2022-07-05T17:03:06;1.27;;;1.27;;
73154;SDS011;61364;52.418;7.382;2022-07-05T17:05:32;1.40;;;1.40;;
73154;SDS011;61364;52.418;7.382;2022-07-05T17:08:05;1.48;;;1.48;;
73154;SDS011;61364;52.418;7.382;2022-07-05T17:10:31;1.39;;;1.39;;
73154;SDS011;61364;52.418;7.382;2022-07-05T17:12:57;1.46;;;1.46;;
73154;SDS011;61364;52.418;7.382;2022-07-05T17:15:24;1.32;;;1.32;;
73154;SDS011;61364;52.418;7.382;2022-07-05T17:20:42;1.32;;;1.32;;
73154;SDS011;61364;52.418;7.382;2022-07-05T17:23:19;1.35;;;1.35;;
73154;SDS011;61364;52.418;7.382;2022-07-05T17:25:44;1.40;;;1.40;;
73154;SDS011;61364;52.418;7.382;2022-07-05T17:30:40;1.23;;;1.23;;
73154;SDS011;61364;52.418;7.382;2022-07-05T17:33:06;1.38;;;1.38;;
73154;SDS011;61364;52.418;7.382;2022-07-05T17:35:31;1.34;;;1.34;;
73154;SDS011;61364;52.418;7.382;2022-07-05T17:38:02;1.28;;;1.28;;
73154;SDS011;61364;52.418;7.382;2022-07-05T17:40:28;1.26;;;1.26;;
73154;SDS011;61364;52.418;7.382;2022-07-05T17:45:30;1.33;;;1.33;;
73154;SDS011;61364;52.418;7.382;2022-07-05T17:47:56;1.28;;;1.28;;
73154;SDS011;61364;52.418;7.382;2022-07-05T17:53:03;1.29;;;1.29;;
73154;SDS011;61364;52.418;7.382;2022-07-05T17:58:31;1.25;;;1.25;;
73154;SDS011;61364;52.418;7.382;2022-07-05T18:00:57;1.32;;;1.32;;
73154;SDS011;61364;52.418;7.382;2022-07-05T18:03:33;1.27;;;1.27;;
73154;SDS011;61364;52.418;7.382;2022-07-05T18:05:59;1.30;;;1.30;;
73154;SDS011;61364;52.418;7.382;2022-07-05T18:11:00;1.41;;;1.41;;
73154;SDS011;61364;52.418;7.382;2022-07-05T18:13:26;1.26;;;1.26;;
73154;SDS011;61364;52.418;7.382;2022-07-05T18:16:06;1.46;;;1.46;;
73154;SDS011;61364;52.418;7.382;2022-07-05T18:18:31;1.25;;;1.25;;
73154;SDS011;61364;52.418;7.382;2022-07-05T18:21:09;1.44;;;1.44;;
73154;SDS011;61364;52.418;7.382;2022-07-05T18:23:35;1.39;;;1.39;;
73154;SDS011;61364;52.418;7.382;2022-07-05T18:28:48;1.42;;;1.42;;
73154;SDS011;61364;52.418;7.382;2022-07-05T18:34:12;1.43;;;1.43;;
73154;SDS011;61364;52.418;7.382;2022-07-05T18:36:37;1.46;;;1.46;;
73154;SDS011;61364;52.418;7.382;2022-07-05T18:39:14;1.43;;;1.43;;
73154;SDS011;61364;52.418;7.382;2022-07-05T18:41:40;1.37;;;1.37;;
73154;SDS011;61364;52.418;7.382;2022-07-05T18:44:05;1.54;;;1.54;;
73154;SDS011;61364;52.418;7.382;2022-07-05T18:46:31;1.60;;;1.60;;
73154;SDS011;61364;52.418;7.382;2022-07-05T18:48:57;1.51;;;1.51;;
73154;SDS011;61364;52.418;7.382;2022-07-05T18:54:16;1.57;;;1.57;;
73154;SDS011;61364;52.418;7.382;2022-07-05T18:56:42;1.56;;;1.56;;
73154;SDS011;61364;52.418;7.382;2022-07-05T18:59:17;1.76;;;1.76;;
73154;SDS011;61364;52.418;7.382;2022-07-05T19:01:42;1.51;;;1.51;;
73154;SDS011;61364;52.418;7.382;2022-07-05T19:06:52;1.55;;;1.55;;
73154;SDS011;61364;52.418;7.382;2022-07-05T19:15:41;1.71;;;1.71;;
73154;SDS011;61364;52.418;7.382;2022-07-05T19:20:58;1.55;;;1.55;;
73154;SDS011;61364;52.418;7.382;2022-07-05T19:23:27;1.70;;;1.70;;
73154;SDS011;61364;52.418;7.382;2022-07-05T19:25:53;1.66;;;1.66;;
73154;SDS011;61364;52.418;7.382;2022-07-05T19:28:20;1.61;;;1.61;;
73154;SDS011;61364;52.418;7.382;2022-07-05T19:33:53;1.50;;;1.50;;
73154;SDS011;61364;52.418;7.382;2022-07-05T19:36:19;1.52;;;1.52;;
73154;SDS011;61364;52.418;7.382;2022-07-05T19:44:16;1.67;;;1.67;;
73154;SDS011;61364;52.418;7.382;2022-07-05T19:49:12;1.44;;;1.44;;
73154;SDS011;61364;52.418;7.382;2022-07-05T19:51:38;1.52;;;1.52;;